Mt. Lincoln Summit Weather observations

Data are for 10 minute period ending at time listed.
 Day   Time   Solar   Ave.   Ave.  Ave.  Vector    Max.   Stn.  
  of    of     Rad.   Air    Rel.  Wind   Wind     Wind   Baro.  
Year   Day            Temp.  Hum.  Speed  Dir.     Gust   Pres. 
2016   (PST)   W/m2    F      %     mph   deg.      mph    mb    
-----------------------------------------------------------------
  40    0:00  999.0    44   65.7    17    113.8    22.4   585.20
  40    0:10  999.0    44   65.8    19    108.7    23.9   588.40
  40    0:20  999.0    43   65.9    16    107.8    20.3   586.60
  40    0:30  999.0    42   66.4    14    121.4    17.4   585.00
  40    0:40  999.0    43   67.0    11    139.9    16.0   584.80
  40    0:50  999.0    44   67.6     3    143.6    12.0   585.80
  40    1:00  999.0    43   67.8     3    159.0    11.0   586.80
  40    1:10  999.0    44   68.6    10    160.2    11.9   586.30
  40    1:20  999.0    45   68.7    11    156.9    14.4   588.20
  40    1:30  999.0    46   68.8    12    160.5    14.6   591.30
  40    1:40  999.0    47   68.6    12    165.8    14.3   592.80
  40    1:50  999.0    47   68.4    12    164.5    14.5   593.30
  40    2:00  999.0    47   68.3    12    169.3    13.8   593.90
  40    2:10  999.0    48   68.4    12    169.7    14.6   592.20
  40    2:20  999.0    48   68.1    13    171.1    16.9   594.10
  40    2:30  999.0    48   67.9    13    170.0    16.5   594.50
  40    2:40  999.0    48   67.7    13    169.9    16.0   596.00
  40    2:50  999.0    47   67.4    13    165.9    16.2   597.90
  40    3:00  999.0    47   67.5    13    166.3    14.9   598.60
  40    3:10  999.0    47   67.5    13    168.3    15.1   598.30
  40    3:20  999.0    47   67.5    13    170.8    14.4   598.50
  40    3:30  999.0    47   67.5    12    171.3    14.3   599.30
  40    3:40  999.0    47   67.6    13    171.0    14.3   599.90
  40    3:50  999.0    47   67.8    12    170.7    14.7   598.10
  40    4:00  999.0    47   67.7    13    170.4    14.5   599.90
  40    4:10  999.0    47   67.7    13    173.0    15.4   603.60
  40    4:20  999.0    47   67.6    12    172.5    15.0   601.70
  40    4:30  999.0    47   67.8    13    172.0    16.0   602.70
  40    4:40  999.0    47   67.8    13    175.3    16.8   601.40
  40    4:50  999.0    48   67.8    15    179.7    19.2   603.30
  40    5:00  999.0    48   67.7    15    179.5    18.3   600.90
  40    5:10  999.0    48   67.6    14    179.7    17.6   599.80
  40    5:20  999.0    48   67.6    13    181.4    16.6   599.60
  40    5:30  999.0    47   67.9    13    178.1    16.0   602.40
  40    5:40  999.0    47   67.8    12    176.4    13.4   600.80
  40    5:50  999.0    47   67.8    15    188.1    17.8   599.80
  40    6:00  999.0    46   67.7    16    190.0    18.3   602.30
  40    6:10  999.0    46   67.6    15    193.7    17.4   602.50
  40    6:20  999.0    46   67.9    15    195.1    17.8   604.50
  40    6:30  999.0    45   68.1    15    195.7    16.9   603.60
  40    6:40  999.0    44   68.4    16    193.9    17.6   599.90
  40    6:50  999.0    45   68.5    16    192.3    19.4   600.40
  40    7:00  999.0    45   68.3    19    198.9    21.5   600.70
  40    7:10  999.0    45   68.1    21    204.0    23.0   598.50
  40    7:20  999.0    46   67.8    21    209.0    23.8   597.60
  40    7:30  999.0    48   67.8    14    216.2    25.5   598.90
  40    7:40  999.0    49   67.7     6    217.8    28.4   596.40
  40    7:50  999.0    49   67.5     3    216.5     4.2   593.30
  40    8:00  999.0    49   67.3     4    212.6     4.6   591.10
  40    8:10  999.0    48   67.6     4    211.4     4.4   590.00
  40    8:20  999.0    47   67.9     3    207.9     4.2   586.90
  40    8:30  999.0    46   68.1     3    204.2     4.2   586.00
  40    8:40  999.0    47   68.1     3    204.1    23.5   587.10
  40    8:50  999.0    47   68.3    14    211.1    27.0   588.20
  40    9:00  999.0    48   68.5    18    214.1    25.7   589.00
  40    9:10  999.0    48   68.5    18    220.7    25.6   587.40
  40    9:20  999.0    48   68.5    20    225.2    26.4   588.30
  40    9:30  999.0    48   68.6    19    226.5    26.5   586.80
  40    9:40  999.0    48   68.6    20    227.8    27.8   586.80
  40    9:50  999.0    48   68.8    17    229.6    28.1   587.20
  40   10:00  999.0    48   68.9     8    225.9    24.8   585.40
  40   10:10  999.0    48   68.8    11    233.6    23.4   587.80
  40   10:20  999.0    48   69.1     2    218.2    12.5   582.00
  40   10:30  999.0    49   68.7     2    223.3    14.4   581.40
  40   10:40  999.0    49   68.5     3    220.9    17.9   580.20
  40   10:50  999.0    48   68.4     2    237.3    19.3   583.80
  40   11:00  999.0    48   68.8     4    243.4    21.3   583.70
  40   11:10  999.0    48   69.2     2    242.8     4.8   582.10
  40   11:20  999.0    48   69.3     2    242.0     4.8   584.80
  40   11:30  999.0    48   69.3    13    235.5    26.1   585.00
  40   11:40  999.0    48   69.4     6    245.4    21.5   584.70
  40   11:50  999.0    49   69.3    11    213.5    28.0   587.40
  40   12:00  999.0    49   68.8    11    239.9    25.0   585.70
  40   12:10  999.0    48   69.2    15    227.1    26.4   584.40
  40   12:20  999.0    49   68.9    14    214.7    30.7   587.00
  40   12:30  999.0    50   68.3    16    203.8    31.3   587.60
  40   12:40  999.0    50   67.6     9    192.8    27.1   583.20
  40   12:50  999.0    50   67.4    12    209.3    29.6   582.10
  40   13:00  999.0    49   67.7     8    229.5    26.3   582.20
  40   13:10  999.0    48   68.2    14    238.3    33.0   588.10
  40   13:20  999.0    48   69.1    12    226.5    32.8   586.80
  40   13:30  999.0    48   69.1     3    232.4    22.1   585.10
  40   13:40  999.0    48   69.1     2    218.9    14.9   584.20
  40   13:50  999.0    49   68.6     2    215.1    17.9   582.90
  40   14:00  999.0    49   68.5     2    213.0    12.3   583.00
  40   14:10  999.0    48   68.4     3    235.8    15.2   581.20
  40   14:20  999.0    48   68.8     2    234.0    19.8   582.60
  40   14:30  999.0    48   68.9    14    235.9    22.9   582.60
  40   14:40  999.0    48   68.9    13    236.2    19.5   585.30
  40   14:50  999.0    48   69.1     5    259.5    18.8   584.20
  40   15:00  999.0    48   69.1     7    227.3    21.7   582.00
  40   15:10  999.0    48   69.1     5    221.4    18.6   583.00
  40   15:20  999.0    49   68.7     4    212.5    20.6   580.20
  40   15:30  999.0    48   68.5     6    235.5    27.3   580.30
  40   15:40  999.0    47   68.9    13    231.7    21.3   584.20
  40   15:50  999.0    47   69.1    15    237.3    21.0   586.30
  40   16:00  999.0    46   69.4    13    243.5    19.7   584.90
  40   16:10  999.0    47   69.4     6    245.9    18.8   580.30
  40   16:20  999.0    46   69.4    16    241.4    19.3   581.80
  40   16:30  999.0    46   69.4    16    239.3    19.2   580.90
  40   16:40  999.0    46   69.5    16    233.2    18.6   584.60
  40   16:50  999.0    46   69.4    17    231.7    19.5   582.80
  40   17:00  999.0    46   69.4    18    237.1    20.7   588.80
  40   17:10  999.0    46   69.5    19    229.7    21.7   590.80
  40   17:20  999.0    45   69.5    19    223.5    21.9   591.40
  40   17:30  999.0    45   69.6    19    222.2    22.7   593.40
  40   17:40  999.0    45   69.5    18    236.7    21.2   592.00
  40   17:50  999.0    44   69.5    18    247.0    22.1   593.50
  40   18:00  999.0    44   69.5    14    253.0    19.0   589.90
  40   18:10  999.0    44   69.5    15    247.6    18.9   592.60
  40   18:20  999.0    44   69.5    17    246.3    19.2   595.00
  40   18:30  999.0    44   69.5    16    245.7    18.7   593.10
  40   18:40  999.0    44   69.4    17    243.6    20.6   595.40
  40   18:50  999.0    43   69.3    18    233.5    20.2   593.60
  40   19:00  999.0    43   69.4    20    222.0    21.8   595.40

Return to Mt. Lincoln graphs page.


Western Regional Climate Center,wrcc@dri.edu